METAR Data
IDs: Format: Raw Decoded Include TAF

Data at: 1152 UTC 23 Sep 2018

KHSD 231135Z AUTO 04006KT 10SM OVC010 18/16 A3002 RMK A01
KHSD 231115Z AUTO 04008KT 10SM OVC011 18/16 A3002 RMK A01
KHSD 231055Z AUTO 04006KT 10SM OVC012 18/16 A3002 RMK A01
KHSD 231035Z AUTO 05004KT 10SM OVC011 18/16 A3001 RMK A01
KHSD 231015Z AUTO 07006KT 10SM OVC010 18/16 A3002 RMK A01
KHSD 230955Z AUTO 07005G11KT 10SM OVC011 18/16 A3002 RMK A01
KHSD 230935Z AUTO 06008KT 10SM OVC011 18/16 A3002 RMK A01
KHSD 230915Z AUTO 05007KT 10SM OVC012 18/16 A3002 RMK A01
KHSD 230855Z AUTO 05007KT 10SM OVC012 18/16 A3002 RMK A01
KHSD 230835Z AUTO 06007KT 10SM OVC013 19/16 A3002 RMK A01
KHSD 230815Z AUTO 08006KT 10SM OVC014 19/16 A3002 RMK A01
KHSD 230755Z AUTO 07005KT 10SM OVC015 19/16 A3003 RMK A01
KHSD 230735Z AUTO 07006G12KT 10SM OVC015 19/16 A3003 RMK A01
KHSD 230715Z AUTO 06009KT 10SM OVC015 19/17 A3003 RMK A01
KHSD 230655Z AUTO 04005KT 10SM OVC015 19/17 A3003 RMK A01
KHSD 230635Z AUTO 04005KT 10SM OVC015 19/17 A3003 RMK A01
KHSD 230615Z AUTO 03005KT 10SM OVC017 19/17 A3004 RMK A01
KHSD 230555Z AUTO 09006KT 10SM OVC018 19/17 A3004 RMK A01
KHSD 230535Z AUTO 03004KT 10SM OVC018 18/17 A3004 RMK A01
KHSD 230515Z AUTO 03004KT 10SM OVC019 18/17 A3004 RMK A01
KHSD 230455Z AUTO 00000KT 10SM OVC021 18/17 A3005 RMK A01
KHSD 230435Z AUTO 00000KT 10SM SCT021 17/16 A3005 RMK A01
KHSD 230415Z AUTO 03004KT 10SM CLR 18/16 A3005 RMK A01
KHSD 230355Z AUTO 05004KT 10SM CLR 18/16 A3006 RMK A01
KHSD 230335Z AUTO 06005KT 10SM CLR 19/16 A3006 RMK A01
KHSD 230315Z AUTO 06004KT 10SM CLR 19/16 A3007 RMK A01
KHSD 230255Z AUTO 07005KT 10SM CLR 19/17 A3007 RMK A01
KHSD 230235Z AUTO 07006KT 10SM CLR 20/17 A3007 RMK A01
KHSD 230215Z AUTO 07006KT 10SM CLR 20/17 A3006 RMK A01
KHSD 230155Z AUTO 08006KT 10SM CLR 20/17 A3006 RMK A01
KHSD 230135Z AUTO 08007KT 10SM CLR 20/17 A3005 RMK A01
KHSD 230115Z AUTO 08005KT 10SM CLR 21/17 A3005 RMK A01
KHSD 230055Z AUTO 09007KT 10SM CLR 21/17 A3005 RMK A01
KHSD 230035Z AUTO 07008KT 10SM FEW035 22/17 A3004 RMK A01
KHSD 230015Z AUTO 05008KT 10SM SCT035 23/16 A3004 RMK A01
KHSD 222355Z AUTO 05009G14KT 10SM SCT038 23/16 A3004 RMK A01
KHSD 222335Z AUTO 05010KT 10SM SCT038 24/16 A3003 RMK A01
KHSD 222315Z AUTO 04013KT 10SM FEW040 24/16 A3003 RMK A01
KHSD 222255Z AUTO 04010G15KT 10SM FEW039 24/16 A3003 RMK A01
KHSD 222235Z AUTO 02010KT 10SM SCT039 24/16 A3003 RMK A01
KHSD 222215Z AUTO 03009G16KT 10SM SCT038 24/16 A3004 RMK A01
KHSD 222155Z AUTO 04013KT 10SM SCT037 24/16 A3004 RMK A01
KHSD 222135Z AUTO 04011G19KT 10SM SCT039 24/16 A3004 RMK A01
KHSD 222115Z AUTO 03012KT 10SM BKN040 24/16 A3005 RMK A01
KHSD 222055Z AUTO 05011G17KT 10SM BKN036 BKN042 24/16 A3005 RMK A01
KHSD 222035Z AUTO 03013KT 10SM SCT034 SCT041 24/16 A3006 RMK A01
KHSD 222015Z AUTO 02012KT 10SM SCT031 SCT038 24/17 A3006 RMK A01
KHSD 221955Z AUTO 03013KT 10SM SCT031 24/17 A3007 RMK A01
KHSD 221935Z AUTO 05013G19KT 10SM SCT028 23/16 A3008 RMK A01
KHSD 221915Z AUTO 03012G20KT 10SM FEW028 23/17 A3009 RMK A01
KHSD 221855Z AUTO 03011G18KT 10SM FEW027 23/17 A3009 RMK A01
KHSD 221835Z AUTO 03012G17KT 10SM CLR 22/16 A3010 RMK A01
KHSD 221815Z AUTO 02013KT 10SM FEW024 22/16 A3011 RMK A01
KHSD 221755Z AUTO 02009G14KT 10SM BKN023 21/16 A3012 RMK A01
KHSD 221735Z AUTO 04012KT 10SM OVC023 21/16 A3013 RMK A01
KHSD 221715Z AUTO 02012KT 10SM OVC020 20/15 A3014 RMK A01
KHSD 221655Z AUTO 01010KT 10SM BKN020 19/15 A3015 RMK A01
KHSD 221635Z AUTO 01012KT 10SM BKN020 19/15 A3015 RMK A01
KHSD 221615Z AUTO 03009G14KT 10SM BKN017 18/14 A3016 RMK A01
KHSD 221555Z AUTO 02011KT 10SM BKN017 BKN036 18/14 A3016 RMK A01
KHSD 221535Z AUTO 02012KT 10SM SCT016 BKN037 18/14 A3016 RMK A01
KHSD 221515Z AUTO 02014KT 10SM SCT014 OVC039 16/13 A3016 RMK A01
KHSD 221455Z AUTO 02015KT 10SM SCT013 OVC036 15/13 A3015 RMK A01
KHSD 221435Z AUTO 03011KT 10SM FEW013 OVC033 15/13 A3016 RMK A01
KHSD 221415Z AUTO 02012KT 10SM OVC033 15/13 A3016 RMK A01
KHSD 221355Z AUTO 01011KT 10SM OVC034 15/13 A3016 RMK A01
KHSD 221335Z AUTO 02011G17KT 10SM OVC031 14/12 A3015 RMK A01
KHSD 221315Z AUTO 01014KT 10SM OVC029 14/13 A3015 RMK A01
KHSD 221255Z AUTO 02012KT 10SM OVC028 14/13 A3015 RMK A01
KHSD 221235Z AUTO 01011KT 10SM OVC028 14/13 A3015 RMK A01
KHSD 221215Z AUTO 02010KT 10SM OVC028 15/13 A3015 RMK A01
KHSD 221155Z AUTO 02012KT 10SM OVC028 15/13 A3015 RMK A01
KHSD 221135Z AUTO 02011KT 10SM OVC027 15/13 A3015 RMK A01
KHSD 221115Z AUTO 02012KT 10SM OVC027 15/13 A3015 RMK A01
KHSD 221055Z AUTO 02012KT 10SM OVC029 15/13 A3015 RMK A01
KHSD 221035Z AUTO 02011KT 10SM OVC030 15/13 A3015 RMK A01
KHSD 221015Z AUTO 02012KT 10SM OVC030 15/13 A3015 RMK A01
KHSD 220955Z AUTO 01011KT 10SM OVC028 15/13 A3014 RMK A01
KHSD 220935Z AUTO 02012KT 10SM OVC028 15/13 A3015 RMK A01
KHSD 220915Z AUTO 01010KT 10SM OVC029 15/13 A3016 RMK A01
KHSD 220855Z AUTO 01012KT 10SM OVC030 15/13 A3016 RMK A01
KHSD 220835Z AUTO 01010KT 10SM OVC031 15/13 A3015 RMK A01
KHSD 220815Z AUTO 02011KT 10SM BKN031 15/13 A3015 RMK A01
KHSD 220755Z AUTO 02011KT 10SM SCT028 15/13 A3015 RMK A01
KHSD 220735Z AUTO 02012KT 10SM BKN028 OVC032 15/13 A3015 RMK A01
KHSD 220715Z AUTO 02011KT 10SM BKN027 OVC032 15/13 A3015 RMK A01
KHSD 220655Z AUTO 02011KT 10SM BKN028 OVC033 15/13 A3016 RMK A01
KHSD 220635Z AUTO 01010G15KT 10SM BKN028 OVC032 15/13 A3016 RMK A01
KHSD 220615Z AUTO 01010KT 10SM OVC029 16/13 A3016 RMK A01
KHSD 220555Z AUTO 02012KT 10SM OVC029 15/13 A3017 RMK A01
KHSD 220535Z AUTO 02011KT 10SM OVC029 16/13 A3017 RMK A01
KHSD 220515Z AUTO 02012KT 10SM OVC026 16/13 A3017 RMK A01
KHSD 220455Z AUTO 02013KT 10SM OVC026 16/13 A3017 RMK A01
KHSD 220435Z AUTO 01011KT 10SM OVC025 16/13 A3018 RMK A01
KHSD 220415Z AUTO 02012G18KT 10SM OVC025 16/13 A3017 RMK A01
KHSD 220355Z AUTO 02013G18KT 10SM OVC025 16/14 A3017 RMK A01
KHSD 220335Z AUTO 01012KT 10SM BKN025 BKN030 16/14 A3017 RMK A01
KHSD 220315Z AUTO 01015KT 10SM BKN026 BKN031 16/14 A3016 RMK A01
KHSD 220255Z AUTO 01012G17KT 10SM BKN023 OVC028 16/15 A3017 RMK A01
KHSD 220235Z AUTO 01009KT 10SM BKN023 OVC027 16/15 A3016 RMK A01
KHSD 220215Z AUTO 36011KT 10SM BKN021 BKN026 OVC120 16/15 A3016 RMK A01
KHSD 220155Z AUTO 01011KT 10SM FEW018 SCT085 OVC120 16/15 A3015 RMK A01
KHSD 220135Z AUTO 03010KT 10SM FEW090 OVC110 17/15 A3013 RMK A01
KHSD 220115Z AUTO 03008KT 10SM OVC120 17/15 A3012 RMK A01
KHSD 220055Z AUTO 04011G16KT 10SM BKN120 17/15 A3011 RMK A01
KHSD 220035Z AUTO 04012KT 10SM FEW120 17/15 A3012 RMK A01
KHSD 220015Z AUTO 03012KT 10SM CLR 17/15 A3012 RMK A01
KHSD 212355Z AUTO 03010KT 10SM CLR 17/15 A3013 RMK A01